Time;durP1;ratioP1;P1;durP2;ratioP2;P2;SDS_P1;SDS_P2;PMS_P1;PMS_P2;Temp;Humidity;BMP_temperature;BMP_pressure;BME280_temperature;BME280_humidity;BME280_pressure;Samples;Min_cycle;Max_cycle;Signal;HPM_P1;HPM_P2
2022/09/06 00:00:50;;;;;;;1.80;1.70;;;;;;;;;;5011858;28;20183;-75
2022/09/06 00:03:15;;;;;;;2.75;1.60;;;;;;;;;;5010060;28;20179;-74
2022/09/06 00:05:42;;;;;;;1.80;1.70;;;;;;;;;;5018821;28;20700;-74
2022/09/06 00:08:07;;;;;;;2.25;2.05;;;;;;;;;;5018576;28;20605;-75
2022/09/06 00:10:33;;;;;;;2.20;2.00;;;;;;;;;;5011479;28;20187;-74
2022/09/06 00:13:05;;;;;;;1.73;1.60;;;;;;;;;;5010556;28;20207;-74
2022/09/06 00:15:31;;;;;;;1.40;1.30;;;;;;;;;;5017246;28;20233;-74
2022/09/06 00:18:02;;;;;;;2.15;1.77;;;;;;;;;;5006194;28;20207;-74
2022/09/06 00:20:28;;;;;;;2.83;1.48;;;;;;;;;;5010179;28;20266;-74
2022/09/06 00:22:58;;;;;;;2.25;1.88;;;;;;;;;;5012841;28;20401;-74
2022/09/06 00:25:24;;;;;;;2.00;1.80;;;;;;;;;;5016878;28;20673;-74
2022/09/06 00:27:54;;;;;;;2.13;1.92;;;;;;;;;;5020823;28;20177;-75
2022/09/06 00:30:19;;;;;;;1.98;1.70;;;;;;;;;;5011159;28;20263;-74
2022/09/06 00:32:44;;;;;;;2.08;1.70;;;;;;;;;;5011064;28;20611;-74
2022/09/06 00:35:09;;;;;;;2.50;2.10;;;;;;;;;;5021696;28;20206;-74
2022/09/06 00:37:34;;;;;;;2.20;1.97;;;;;;;;;;5007486;28;20222;-74
2022/09/06 00:39:59;;;;;;;2.42;2.03;;;;;;;;;;5013395;28;20817;-75
2022/09/06 00:42:25;;;;;;;3.67;2.28;;;;;;;;;;5010958;28;20183;-74
2022/09/06 00:44:50;;;;;;;4.03;2.43;;;;;;;;;;5014375;28;20179;-74
2022/09/06 00:47:15;;;;;;;2.47;2.22;;;;;;;;;;5020110;28;20957;-74
2022/09/06 00:49:43;;;;;;;3.97;2.28;;;;;;;;;;5011718;28;20187;-75
2022/09/06 00:52:10;;;;;;;2.55;2.20;;;;;;;;;;5019823;28;20650;-74
2022/09/06 00:54:36;;;;;;;4.90;2.47;;;;;;;;;;5015335;28;20182;-74
2022/09/06 00:57:01;;;;;;;3.75;2.55;;;;;;;;;;5012404;28;20699;-74
2022/09/06 00:59:28;;;;;;;2.50;2.30;;;;;;;;;;5011322;28;20182;-74
2022/09/06 01:01:53;;;;;;;3.13;2.83;;;;;;;;;;5012411;28;20186;-74
2022/09/06 01:04:19;;;;;;;4.13;2.55;;;;;;;;;;5020568;28;20262;-75
2022/09/06 01:06:54;;;;;;;3.15;2.78;;;;;;;;;;5013485;28;20214;-74
2022/09/06 01:09:30;;;;;;;3.13;2.63;;;;;;;;;;5015020;28;20706;-74
2022/09/06 01:12:17;;;;;;;3.97;2.80;;;;;;;;;;5013666;28;20663;-75
2022/09/06 01:14:42;;;;;;;3.13;2.35;;;;;;;;;;5014801;28;20189;-75
2022/09/06 01:17:08;;;;;;;4.85;2.75;;;;;;;;;;5012899;28;20207;-75
2022/09/06 01:19:52;;;;;;;3.38;2.78;;;;;;;;;;5018484;28;20490;-76
2022/09/06 01:22:20;;;;;;;4.18;3.30;;;;;;;;;;5018304;28;20171;-75
2022/09/06 01:24:57;;;;;;;4.38;3.08;;;;;;;;;;5017640;28;20221;-75
2022/09/06 01:27:40;;;;;;;3.53;3.03;;;;;;;;;;5016842;28;20688;-75
2022/09/06 01:30:11;;;;;;;4.03;3.55;;;;;;;;;;5015402;28;20185;-75
2022/09/06 01:32:39;;;;;;;3.50;2.65;;;;;;;;;;5007235;28;20186;-75
2022/09/06 01:35:10;;;;;;;5.97;3.63;;;;;;;;;;5012042;28;20528;-75
2022/09/06 01:37:35;;;;;;;3.50;3.20;;;;;;;;;;5018378;28;20274;-75
2022/09/06 01:40:01;;;;;;;3.42;3.05;;;;;;;;;;5019043;28;20600;-75
2022/09/06 01:42:29;;;;;;;3.75;3.22;;;;;;;;;;5018252;28;20193;-75
2022/09/06 01:45:06;;;;;;;3.90;3.38;;;;;;;;;;5013004;28;20276;-74
2022/09/06 01:47:41;;;;;;;4.50;4.10;;;;;;;;;;5022822;28;20206;-75
2022/09/06 01:50:18;;;;;;;4.85;3.67;;;;;;;;;;5014044;28;20185;-75
2022/09/06 01:52:46;;;;;;;6.07;3.42;;;;;;;;;;5009620;28;20183;-74
2022/09/06 01:55:33;;;;;;;5.63;3.92;;;;;;;;;;5014619;28;20178;-76
2022/09/06 01:57:58;;;;;;;4.32;3.92;;;;;;;;;;5012439;28;20187;-74
2022/09/06 02:00:24;;;;;;;4.63;4.05;;;;;;;;;;5010275;28;20644;-76
2022/09/06 02:02:49;;;;;;;4.65;4.15;;;;;;;;;;5016294;28;20514;-74
2022/09/06 02:05:17;;;;;;;4.50;4.07;;;;;;;;;;5015830;28;20182;-76
2022/09/06 02:07:44;;;;;;;4.50;4.10;;;;;;;;;;5022344;28;20478;-77
2022/09/06 02:10:13;;;;;;;5.43;4.63;;;;;;;;;;5014685;28;20182;-76
2022/09/06 02:12:40;;;;;;;5.70;4.95;;;;;;;;;;5014579;28;20190;-76
2022/09/06 02:15:08;;;;;;;5.88;5.28;;;;;;;;;;5010623;28;20258;-75
2022/09/06 02:17:37;;;;;;;5.38;4.80;;;;;;;;;;5016667;28;20211;-75
2022/09/06 02:20:03;;;;;;;7.82;5.82;;;;;;;;;;5017816;28;20186;-76
2022/09/06 02:22:29;;;;;;;4.75;4.35;;;;;;;;;;5019896;28;20174;-76
2022/09/06 02:24:57;;;;;;;6.15;5.55;;;;;;;;;;5018872;28;20167;-76
2022/09/06 02:27:23;;;;;;;6.68;5.53;;;;;;;;;;5011808;28;20203;-76
2022/09/06 02:29:48;;;;;;;6.03;5.43;;;;;;;;;;5011704;28;20198;-74
2022/09/06 02:32:18;;;;;;;7.65;5.70;;;;;;;;;;5014528;28;20182;-74
2022/09/06 02:34:45;;;;;;;6.50;5.70;;;;;;;;;;5009598;28;20226;-74
2022/09/06 02:37:10;;;;;;;6.50;5.90;;;;;;;;;;5014344;28;20204;-74
2022/09/06 02:39:36;;;;;;;6.47;5.78;;;;;;;;;;5015305;28;20175;-76
2022/09/06 02:42:03;;;;;;;6.47;5.30;;;;;;;;;;5020781;28;20166;-76
2022/09/06 02:44:28;;;;;;;7.90;6.65;;;;;;;;;;5022160;28;20608;-76
2022/09/06 02:46:53;;;;;;;8.23;6.53;;;;;;;;;;5013439;28;20201;-74
2022/09/06 02:49:19;;;;;;;8.77;7.23;;;;;;;;;;5016979;28;20558;-76
2022/09/06 02:51:44;;;;;;;8.70;6.03;;;;;;;;;;5014924;28;20426;-76
2022/09/06 02:54:09;;;;;;;8.77;7.47;;;;;;;;;;5003727;28;20241;-76
2022/09/06 02:56:35;;;;;;;10.00;7.35;;;;;;;;;;5006271;28;22265;-76
2022/09/06 02:59:00;;;;;;;9.15;8.13;;;;;;;;;;5018638;28;20217;-75
2022/09/06 03:01:25;;;;;;;9.73;8.27;;;;;;;;;;4992406;28;20837;-76
2022/09/06 03:03:51;;;;;;;9.93;8.30;;;;;;;;;;4982434;28;20179;-76
2022/09/06 03:06:16;;;;;;;8.70;7.75;;;;;;;;;;5004551;28;20475;-76
2022/09/06 03:08:41;;;;;;;9.40;8.38;;;;;;;;;;5029403;28;20184;-76
2022/09/06 03:11:06;;;;;;;9.40;8.45;;;;;;;;;;5013948;28;20193;-74
2022/09/06 03:13:31;;;;;;;10.90;8.85;;;;;;;;;;5041589;28;20519;-74
2022/09/06 03:15:57;;;;;;;10.38;9.25;;;;;;;;;;5009924;28;20207;-75
2022/09/06 03:18:23;;;;;;;11.50;10.20;;;;;;;;;;5008938;28;20175;-74
2022/09/06 03:20:53;;;;;;;10.45;8.88;;;;;;;;;;5010585;28;20651;-74
2022/09/06 03:23:20;;;;;;;9.82;8.70;;;;;;;;;;5014247;28;20703;-77
2022/09/06 03:25:45;;;;;;;9.38;8.48;;;;;;;;;;5021819;28;20202;-74
2022/09/06 03:28:11;;;;;;;8.75;7.60;;;;;;;;;;5009561;28;20675;-76
2022/09/06 03:30:37;;;;;;;9.50;8.45;;;;;;;;;;5024679;28;20183;-74
2022/09/06 03:33:02;;;;;;;9.38;7.70;;;;;;;;;;5020596;28;20706;-74
2022/09/06 03:35:27;;;;;;;8.05;7.22;;;;;;;;;;5016267;28;20261;-75
2022/09/06 03:37:52;;;;;;;11.48;7.78;;;;;;;;;;5011211;28;20174;-75
2022/09/06 03:40:18;;;;;;;9.38;7.90;;;;;;;;;;5009874;28;20171;-75
2022/09/06 03:42:43;;;;;;;8.00;7.18;;;;;;;;;;5022672;28;20209;-74
2022/09/06 03:45:08;;;;;;;8.90;7.95;;;;;;;;;;5019175;28;20270;-74
2022/09/06 03:47:34;;;;;;;9.20;7.90;;;;;;;;;;5010576;28;20196;-74
2022/09/06 03:49:59;;;;;;;11.05;8.05;;;;;;;;;;5008791;28;20203;-74
2022/09/06 03:52:24;;;;;;;9.13;8.20;;;;;;;;;;5018734;28;20556;-75
2022/09/06 03:54:49;;;;;;;12.77;9.83;;;;;;;;;;5017720;28;20194;-74
2022/09/06 03:57:14;;;;;;;8.98;8.07;;;;;;;;;;5010451;28;20456;-75
2022/09/06 03:59:39;;;;;;;9.07;7.65;;;;;;;;;;5006909;28;20663;-75
2022/09/06 04:02:05;;;;;;;10.55;8.63;;;;;;;;;;5011063;28;20175;-75
2022/09/06 04:04:30;;;;;;;11.13;9.55;;;;;;;;;;5008685;28;20241;-74
2022/09/06 04:06:55;;;;;;;11.15;8.80;;;;;;;;;;5003395;28;20218;-75
2022/09/06 04:09:20;;;;;;;10.20;8.63;;;;;;;;;;5016511;28;20187;-75
2022/09/06 04:11:46;;;;;;;11.05;8.70;;;;;;;;;;5008662;28;20270;-74
2022/09/06 04:14:11;;;;;;;11.23;9.73;;;;;;;;;;5009137;28;20178;-75
2022/09/06 04:16:36;;;;;;;9.83;8.83;;;;;;;;;;5010455;28;20474;-75
2022/09/06 04:19:03;;;;;;;10.15;9.15;;;;;;;;;;5010562;28;20515;-74
2022/09/06 04:21:28;;;;;;;10.43;9.18;;;;;;;;;;5013973;28;20593;-75
2022/09/06 04:23:53;;;;;;;11.45;8.82;;;;;;;;;;5010404;28;20178;-74
2022/09/06 04:26:18;;;;;;;10.75;9.65;;;;;;;;;;5013510;28;20594;-74
2022/09/06 04:28:44;;;;;;;10.55;9.45;;;;;;;;;;5012693;28;20276;-75
2022/09/06 04:31:09;;;;;;;9.15;8.20;;;;;;;;;;5012145;28;20322;-74
2022/09/06 04:33:35;;;;;;;12.68;9.15;;;;;;;;;;5013761;28;20565;-74
2022/09/06 04:36:01;;;;;;;11.65;9.35;;;;;;;;;;5016291;28;20253;-74
2022/09/06 04:38:27;;;;;;;9.98;8.43;;;;;;;;;;5037609;28;20851;-74
2022/09/06 04:40:54;;;;;;;11.15;9.00;;;;;;;;;;5018472;28;20174;-74
2022/09/06 04:43:19;;;;;;;11.07;9.25;;;;;;;;;;5013194;28;20175;-74
2022/09/06 04:45:44;;;;;;;9.07;8.07;;;;;;;;;;5012681;28;20566;-74
2022/09/06 04:48:10;;;;;;;9.45;7.80;;;;;;;;;;5013740;28;20660;-74
2022/09/06 04:50:35;;;;;;;11.63;8.13;;;;;;;;;;5012668;28;20191;-74
2022/09/06 04:53:00;;;;;;;10.95;9.02;;;;;;;;;;5012371;28;20466;-74
2022/09/06 04:55:28;;;;;;;11.15;9.25;;;;;;;;;;5018593;28;20262;-75
2022/09/06 04:57:53;;;;;;;11.30;9.40;;;;;;;;;;5012199;28;20306;-74
2022/09/06 05:00:18;;;;;;;11.40;9.50;;;;;;;;;;5007566;28;20293;-74
2022/09/06 05:02:43;;;;;;;10.02;8.98;;;;;;;;;;5008553;28;20262;-74
2022/09/06 05:05:09;;;;;;;11.30;9.50;;;;;;;;;;5013247;28;20182;-74
2022/09/06 05:07:34;;;;;;;13.23;9.75;;;;;;;;;;5013338;28;20249;-74
2022/09/06 05:09:59;;;;;;;10.57;9.32;;;;;;;;;;5011974;28;20179;-74
2022/09/06 05:12:25;;;;;;;10.70;8.70;;;;;;;;;;5021271;28;20179;-74
2022/09/06 05:14:50;;;;;;;11.85;10.60;;;;;;;;;;5019358;28;21085;-74
2022/09/06 05:17:15;;;;;;;10.63;9.50;;;;;;;;;;5020792;28;20260;-74
2022/09/06 05:19:40;;;;;;;11.43;9.93;;;;;;;;;;5015298;28;21066;-74
2022/09/06 05:22:06;;;;;;;12.48;10.77;;;;;;;;;;5022521;28;20431;-74
2022/09/06 05:24:31;;;;;;;11.85;10.25;;;;;;;;;;5018098;28;20205;-74
2022/09/06 05:26:57;;;;;;;12.52;10.90;;;;;;;;;;5014636;28;20572;-76
2022/09/06 05:29:22;;;;;;;11.25;10.07;;;;;;;;;;5013953;28;20183;-76
2022/09/06 05:31:48;;;;;;;11.32;10.13;;;;;;;;;;5020264;28;20170;-76
2022/09/06 05:34:13;;;;;;;11.85;10.60;;;;;;;;;;5017274;28;20233;-75
2022/09/06 05:36:40;;;;;;;12.35;9.88;;;;;;;;;;5016456;28;20210;-75
2022/09/06 05:39:05;;;;;;;13.73;10.55;;;;;;;;;;5022769;28;20178;-75
2022/09/06 05:41:31;;;;;;;11.90;9.88;;;;;;;;;;5017174;28;20841;-76
2022/09/06 05:43:56;;;;;;;13.32;11.43;;;;;;;;;;5027889;28;20262;-76
2022/09/06 05:46:22;;;;;;;12.85;11.23;;;;;;;;;;5012890;28;20700;-76
2022/09/06 05:48:51;;;;;;;13.80;11.30;;;;;;;;;;5017475;28;20684;-76
2022/09/06 05:51:16;;;;;;;15.43;12.02;;;;;;;;;;5010591;28;20593;-76
2022/09/06 05:53:43;;;;;;;11.90;10.63;;;;;;;;;;5032532;28;20183;-76
2022/09/06 05:56:08;;;;;;;12.93;10.30;;;;;;;;;;5011533;28;20298;-75
2022/09/06 05:58:34;;;;;;;13.50;10.85;;;;;;;;;;5021360;28;20257;-75
2022/09/06 06:01:13;;;;;;;12.13;9.70;;;;;;;;;;5006735;28;20171;-75
2022/09/06 06:03:39;;;;;;;13.27;11.88;;;;;;;;;;5013409;28;20174;-75
2022/09/06 06:06:04;;;;;;;13.10;11.70;;;;;;;;;;5014775;28;20221;-75
2022/09/06 06:08:29;;;;;;;11.80;10.50;;;;;;;;;;5024720;28;20189;-76
2022/09/06 06:10:59;;;;;;;11.67;9.70;;;;;;;;;;5017026;28;20709;-75
2022/09/06 06:13:24;;;;;;;18.45;13.52;;;;;;;;;;5013646;28;20432;-75
2022/09/06 06:15:49;;;;;;;13.95;11.43;;;;;;;;;;5023390;28;20266;-74
2022/09/06 06:18:14;;;;;;;14.20;11.23;;;;;;;;;;5024625;28;20173;-74
2022/09/06 06:20:39;;;;;;;13.37;12.03;;;;;;;;;;5017088;28;20420;-74
2022/09/06 06:23:05;;;;;;;12.45;11.20;;;;;;;;;;5011843;28;20455;-74
2022/09/06 06:25:30;;;;;;;12.63;11.30;;;;;;;;;;5012631;28;20576;-74
2022/09/06 06:27:55;;;;;;;11.67;10.47;;;;;;;;;;5010947;28;20452;-74
2022/09/06 06:30:20;;;;;;;14.32;10.57;;;;;;;;;;5012353;28;20531;-74
2022/09/06 06:32:45;;;;;;;12.50;9.50;;;;;;;;;;5013562;28;20559;-74
2022/09/06 06:35:11;;;;;;;10.23;8.45;;;;;;;;;;5017207;28;20434;-74
2022/09/06 06:37:36;;;;;;;9.85;8.95;;;;;;;;;;5018697;28;20210;-74
2022/09/06 06:40:01;;;;;;;11.93;8.73;;;;;;;;;;5007664;28;20179;-73
2022/09/06 06:42:26;;;;;;;8.40;7.60;;;;;;;;;;5002755;28;20429;-74
2022/09/06 06:44:52;;;;;;;9.82;8.38;;;;;;;;;;5005092;28;20202;-73
2022/09/06 06:47:17;;;;;;;9.60;8.18;;;;;;;;;;5014005;28;20199;-74
2022/09/06 06:49:43;;;;;;;9.65;8.65;;;;;;;;;;5009025;28;20178;-74
2022/09/06 06:52:08;;;;;;;9.67;8.40;;;;;;;;;;5014101;28;20186;-73
2022/09/06 06:54:33;;;;;;;9.73;8.73;;;;;;;;;;5009559;28;20820;-74
2022/09/06 06:56:58;;;;;;;10.38;8.10;;;;;;;;;;5007593;28;20467;-73
2022/09/06 06:59:24;;;;;;;11.15;9.18;;;;;;;;;;5016223;28;20171;-73
2022/09/06 07:01:49;;;;;;;9.50;8.48;;;;;;;;;;5006897;28;20561;-74
2022/09/06 07:04:15;;;;;;;10.93;8.65;;;;;;;;;;5013346;28;20172;-74
2022/09/06 07:06:53;;;;;;;7.70;6.90;;;;;;;;;;5017718;28;20210;-74
2022/09/06 07:09:19;;;;;;;8.00;6.90;;;;;;;;;;5012131;28;20665;-74
2022/09/06 07:11:44;;;;;;;8.70;7.05;;;;;;;;;;5016498;28;20297;-74
2022/09/06 07:14:09;;;;;;;8.05;7.25;;;;;;;;;;5011405;28;20222;-73
2022/09/06 07:16:35;;;;;;;7.53;6.73;;;;;;;;;;5015486;28;20210;-74
2022/09/06 07:19:00;;;;;;;7.57;6.88;;;;;;;;;;5012858;28;20418;-74
2022/09/06 07:21:25;;;;;;;8.23;7.43;;;;;;;;;;5018430;28;20519;-74
2022/09/06 07:23:54;;;;;;;8.70;7.90;;;;;;;;;;5008236;28;20179;-73
2022/09/06 07:26:23;;;;;;;8.10;7.18;;;;;;;;;;5013465;28;20616;-74
2022/09/06 07:28:52;;;;;;;9.52;7.03;;;;;;;;;;5006720;28;21890;-73
2022/09/06 07:31:17;;;;;;;9.23;7.55;;;;;;;;;;5013840;28;20495;-74
2022/09/06 07:33:42;;;;;;;8.13;7.28;;;;;;;;;;5020936;28;20184;-74
2022/09/06 07:36:08;;;;;;;7.57;6.67;;;;;;;;;;5010015;28;20198;-74
2022/09/06 07:38:33;;;;;;;8.50;6.97;;;;;;;;;;5010607;28;20929;-74
2022/09/06 07:41:00;;;;;;;6.82;6.22;;;;;;;;;;5010642;28;20557;-74
2022/09/06 07:43:26;;;;;;;8.27;7.00;;;;;;;;;;5008478;28;20190;-73
2022/09/06 07:46:17;;;;;;;7.78;6.97;;;;;;;;;;5010544;28;20209;-73
2022/09/06 07:48:44;;;;;;;8.15;7.40;;;;;;;;;;5009417;28;20187;-74
2022/09/06 07:51:11;;;;;;;8.00;7.20;;;;;;;;;;5009784;28;20202;-73
2022/09/06 07:53:37;;;;;;;7.60;6.68;;;;;;;;;;5012658;28;20179;-73
2022/09/06 07:56:04;;;;;;;6.25;5.65;;;;;;;;;;5011245;28;20296;-73
2022/09/06 07:58:29;;;;;;;7.60;6.88;;;;;;;;;;5013055;28;20258;-74
2022/09/06 08:01:13;;;;;;;7.85;7.15;;;;;;;;;;5016358;28;20705;-73
2022/09/06 08:03:39;;;;;;;7.75;6.97;;;;;;;;;;5012115;28;20170;-73
2022/09/06 08:06:04;;;;;;;8.37;7.57;;;;;;;;;;5010125;28;20210;-73
2022/09/06 08:08:29;;;;;;;7.35;6.22;;;;;;;;;;5017091;28;20443;-73
2022/09/06 08:10:54;;;;;;;7.53;6.83;;;;;;;;;;5021876;28;20182;-73
2022/09/06 08:13:19;;;;;;;6.17;5.57;;;;;;;;;;5016792;28;20439;-73
2022/09/06 08:15:45;;;;;;;7.13;6.40;;;;;;;;;;5021797;28;20448;-73
2022/09/06 08:18:10;;;;;;;6.97;6.10;;;;;;;;;;5013904;28;20842;-74
2022/09/06 08:20:35;;;;;;;7.57;6.18;;;;;;;;;;5016784;28;20490;-73
2022/09/06 08:23:00;;;;;;;7.80;6.77;;;;;;;;;;5012142;28;20622;-73
2022/09/06 08:25:25;;;;;;;6.72;6.07;;;;;;;;;;5015374;28;20506;-73
2022/09/06 08:27:51;;;;;;;5.87;5.30;;;;;;;;;;5022134;28;20723;-73
2022/09/06 08:30:16;;;;;;;6.93;6.23;;;;;;;;;;5016284;28;20420;-73
2022/09/06 08:32:41;;;;;;;6.57;5.72;;;;;;;;;;5012904;28;20445;-73
2022/09/06 08:35:07;;;;;;;7.53;5.47;;;;;;;;;;5012857;28;20183;-73
2022/09/06 08:37:32;;;;;;;5.80;5.30;;;;;;;;;;5013390;28;20723;-73
2022/09/06 08:39:57;;;;;;;5.60;5.10;;;;;;;;;;5013446;28;20233;-73
2022/09/06 08:42:22;;;;;;;7.73;5.37;;;;;;;;;;5010939;28;20474;-73
2022/09/06 08:44:51;;;;;;;5.67;5.17;;;;;;;;;;5017334;28;20960;-73
2022/09/06 08:47:17;;;;;;;4.50;4.10;;;;;;;;;;5013337;28;20479;-73
2022/09/06 08:49:45;;;;;;;5.55;5.03;;;;;;;;;;5010966;28;20672;-73
2022/09/06 08:52:16;;;;;;;5.45;4.95;;;;;;;;;;5011328;28;20667;-73
2022/09/06 08:54:42;;;;;;;5.30;4.18;;;;;;;;;;5013632;28;20175;-73
2022/09/06 08:57:10;;;;;;;4.87;4.47;;;;;;;;;;5015054;28;20659;-73
2022/09/06 08:59:37;;;;;;;5.47;4.65;;;;;;;;;;5014026;28;20254;-73
2022/09/06 09:02:10;;;;;;;5.13;4.63;;;;;;;;;;5018275;28;20171;-73
2022/09/06 09:04:37;;;;;;;4.40;4.00;;;;;;;;;;5012388;28;20186;-73
2022/09/06 09:07:15;;;;;;;5.30;4.72;;;;;;;;;;5011407;28;20688;-73
2022/09/06 09:09:40;;;;;;;4.80;4.40;;;;;;;;;;5026296;28;20186;-73
2022/09/06 09:12:07;;;;;;;5.68;4.40;;;;;;;;;;5010974;28;20183;-73
2022/09/06 09:14:35;;;;;;;4.40;3.95;;;;;;;;;;5016558;28;20179;-73
2022/09/06 09:17:03;;;;;;;3.85;3.45;;;;;;;;;;5009760;28;20229;-73
2022/09/06 09:19:32;;;;;;;4.18;3.80;;;;;;;;;;5016698;28;20179;-73
2022/09/06 09:21:57;;;;;;;4.32;3.95;;;;;;;;;;5004643;28;20267;-73
2022/09/06 09:24:23;;;;;;;4.18;3.78;;;;;;;;;;5012623;28;20261;-73
2022/09/06 09:27:09;;;;;;;4.05;3.65;;;;;;;;;;5019007;28;20205;-73
2022/09/06 09:30:07;;;;;;;3.53;3.22;;;;;;;;;;5017783;28;20186;-72
2022/09/06 09:32:36;;;;;;;3.53;3.22;;;;;;;;;;4979370;28;20286;-73
2022/09/06 09:35:19;;;;;;;3.58;3.10;;;;;;;;;;5013931;28;20186;-74
2022/09/06 09:37:45;;;;;;;4.45;3.40;;;;;;;;;;5009962;28;20249;-73
2022/09/06 09:40:13;;;;;;;3.45;3.08;;;;;;;;;;5033611;28;20206;-73
2022/09/06 09:42:39;;;;;;;5.95;3.53;;;;;;;;;;5007616;28;20351;-73
2022/09/06 09:45:21;;;;;;;3.50;3.20;;;;;;;;;;5011142;28;20262;-73
2022/09/06 09:47:47;;;;;;;6.90;3.78;;;;;;;;;;5013875;28;20182;-73
2022/09/06 09:50:24;;;;;;;5.68;3.40;;;;;;;;;;5011316;28;20182;-73
2022/09/06 09:52:49;;;;;;;3.38;3.03;;;;;;;;;;5012091;28;20187;-73
2022/09/06 09:55:14;;;;;;;5.23;4.40;;;;;;;;;;5013242;28;20182;-73
2022/09/06 09:57:44;;;;;;;5.90;4.45;;;;;;;;;;5008616;28;20460;-72
2022/09/06 10:00:13;;;;;;;4.68;3.88;;;;;;;;;;5007885;28;20659;-73
2022/09/06 10:02:39;;;;;;;5.80;3.90;;;;;;;;;;5001199;28;20194;-72
2022/09/06 10:05:10;;;;;;;4.05;3.65;;;;;;;;;;5012613;28;20258;-72
2022/09/06 10:07:42;;;;;;;6.32;3.60;;;;;;;;;;5016621;28;20690;-72
2022/09/06 10:10:12;;;;;;;6.10;4.47;;;;;;;;;;5011707;28;20544;-73
2022/09/06 10:12:38;;;;;;;4.55;3.58;;;;;;;;;;5024504;28;20313;-73
2022/09/06 10:15:04;;;;;;;4.60;4.18;;;;;;;;;;5021734;28;20182;-72
2022/09/06 10:17:29;;;;;;;4.90;4.22;;;;;;;;;;5014481;28;20218;-73
2022/09/06 10:19:55;;;;;;;5.57;4.35;;;;;;;;;;5022788;28;20167;-73
2022/09/06 10:22:20;;;;;;;4.10;3.70;;;;;;;;;;5024437;28;20170;-72
2022/09/06 10:24:54;;;;;;;11.77;4.53;;;;;;;;;;5022033;28;20178;-73
2022/09/06 10:27:24;;;;;;;7.78;4.70;;;;;;;;;;5004175;28;20448;-72
2022/09/06 10:29:54;;;;;;;5.60;4.80;;;;;;;;;;5014135;28;20274;-72
2022/09/06 10:32:28;;;;;;;5.90;4.18;;;;;;;;;;5021708;28;20277;-72
2022/09/06 10:35:04;;;;;;;9.18;4.30;;;;;;;;;;5018213;28;20222;-72
2022/09/06 10:37:40;;;;;;;5.25;4.20;;;;;;;;;;5013525;28;20206;-72
2022/09/06 10:40:07;;;;;;;4.47;4.03;;;;;;;;;;5031955;28;20651;-72
2022/09/06 10:42:32;;;;;;;5.32;4.82;;;;;;;;;;5009549;28;20660;-72
2022/09/06 10:44:58;;;;;;;8.00;6.60;;;;;;;;;;5008091;28;20316;-72
2022/09/06 10:47:28;;;;;;;7.50;5.23;;;;;;;;;;5016533;28;20195;-72
2022/09/06 10:49:56;;;;;;;6.28;5.45;;;;;;;;;;5025369;28;20174;-72
2022/09/06 10:52:28;;;;;;;5.18;4.68;;;;;;;;;;5018630;28;20171;-72
2022/09/06 10:54:56;;;;;;;6.63;4.50;;;;;;;;;;5005182;28;20286;-72
2022/09/06 10:57:28;;;;;;;5.65;4.43;;;;;;;;;;5012923;28;20221;-72
2022/09/06 11:00:11;;;;;;;5.63;4.43;;;;;;;;;;5008789;28;20175;-72
2022/09/06 11:03:00;;;;;;;4.72;4.15;;;;;;;;;;5008408;28;20179;-71
2022/09/06 11:05:31;;;;;;;5.65;4.35;;;;;;;;;;5010231;28;20175;-72
2022/09/06 11:08:01;;;;;;;5.22;4.07;;;;;;;;;;5055277;23;20303;-69
2022/09/06 11:10:30;;;;;;;5.80;4.45;;;;;;;;;;5050906;28;20588;-68
2022/09/06 11:12:59;;;;;;;6.10;4.97;;;;;;;;;;5050605;28;20197;-69
2022/09/06 11:15:27;;;;;;;12.15;6.72;;;;;;;;;;5044324;28;20713;-69
2022/09/06 11:18:25;;;;;;;8.32;5.35;;;;;;;;;;5044428;28;20221;-69
2022/09/06 11:20:50;;;;;;;7.38;6.65;;;;;;;;;;5033146;28;20200;-69
2022/09/06 11:23:21;;;;;;;7.85;5.30;;;;;;;;;;5048195;28;20262;-68
2022/09/06 11:25:52;;;;;;;7.05;6.38;;;;;;;;;;5041824;28;20181;-68
2022/09/06 11:28:29;;;;;;;6.68;5.95;;;;;;;;;;5049720;28;20174;-69
2022/09/06 11:30:55;;;;;;;7.07;5.57;;;;;;;;;;5046497;28;20180;-69
2022/09/06 11:33:26;;;;;;;7.53;5.68;;;;;;;;;;5047077;28;20184;-69
2022/09/06 11:35:52;;;;;;;5.93;5.32;;;;;;;;;;5039685;28;20235;-69
2022/09/06 11:38:22;;;;;;;9.75;7.05;;;;;;;;;;5042598;28;20173;-69
2022/09/06 11:41:14;;;;;;;5.63;4.95;;;;;;;;;;5049923;28;20554;-69
2022/09/06 11:43:44;;;;;;;7.72;6.05;;;;;;;;;;5047961;28;20186;-69
2022/09/06 11:46:09;;;;;;;5.90;5.10;;;;;;;;;;5045004;28;20658;-69
2022/09/06 11:48:48;;;;;;;6.65;5.53;;;;;;;;;;5047376;28;20207;-68
2022/09/06 11:51:29;;;;;;;5.72;5.13;;;;;;;;;;5041860;28;20216;-69
2022/09/06 11:53:58;;;;;;;7.82;5.72;;;;;;;;;;5033914;28;20186;-69
2022/09/06 11:56:38;;;;;;;6.63;4.72;;;;;;;;;;5048207;28;20236;-69
2022/09/06 11:59:23;;;;;;;5.88;4.28;;;;;;;;;;5049688;28;20170;-68
2022/09/06 12:01:55;;;;;;;6.47;5.00;;;;;;;;;;5042968;28;20182;-68
2022/09/06 12:04:23;;;;;;;5.28;4.75;;;;;;;;;;5039275;28;20247;-69
2022/09/06 12:07:07;;;;;;;6.07;4.72;;;;;;;;;;5049307;28;20209;-69
2022/09/06 12:09:37;;;;;;;10.77;6.10;;;;;;;;;;5047890;28;20268;-69
2022/09/06 12:12:02;;;;;;;7.53;5.65;;;;;;;;;;5048736;28;20581;-69
2022/09/06 12:14:29;;;;;;;5.80;5.18;;;;;;;;;;5048422;28;20173;-69
2022/09/06 12:16:58;;;;;;;6.55;4.45;;;;;;;;;;5049361;28;20259;-69
2022/09/06 12:19:42;;;;;;;4.22;3.92;;;;;;;;;;5049656;28;20197;-69
2022/09/06 12:22:25;;;;;;;4.82;4.28;;;;;;;;;;5045186;28;20174;-68
2022/09/06 12:24:52;;;;;;;8.73;5.65;;;;;;;;;;5034528;28;20174;-69
2022/09/06 12:27:19;;;;;;;5.18;4.30;;;;;;;;;;5049831;28;20279;-69
2022/09/06 12:29:58;;;;;;;8.38;6.03;;;;;;;;;;5048720;28;20182;-69
2022/09/06 12:32:28;;;;;;;6.05;4.90;;;;;;;;;;5045738;28;20178;-69
2022/09/06 12:34:54;;;;;;;6.30;5.22;;;;;;;;;;5049260;28;20178;-69
2022/09/06 12:37:30;;;;;;;7.72;4.90;;;;;;;;;;5048488;28;20340;-69
2022/09/06 12:39:56;;;;;;;5.72;4.65;;;;;;;;;;5049292;28;20174;-68
2022/09/06 12:42:21;;;;;;;5.78;4.60;;;;;;;;;;5048215;28;20196;-69
2022/09/06 12:44:48;;;;;;;5.82;5.00;;;;;;;;;;5049152;28;20166;-69
2022/09/06 12:47:20;;;;;;;9.98;4.78;;;;;;;;;;5052385;28;20280;-69
2022/09/06 12:49:45;;;;;;;4.88;4.32;;;;;;;;;;5049249;28;20399;-69
2022/09/06 12:52:12;;;;;;;5.90;4.93;;;;;;;;;;5051219;28;20169;-69
2022/09/06 12:54:45;;;;;;;5.18;4.50;;;;;;;;;;5038065;28;20185;-69
2022/09/06 12:57:17;;;;;;;5.88;4.57;;;;;;;;;;5058287;28;20244;-69
2022/09/06 12:59:46;;;;;;;5.93;5.00;;;;;;;;;;5049665;28;20243;-69
2022/09/06 13:02:14;;;;;;;4.38;3.97;;;;;;;;;;5050841;28;20247;-69
2022/09/06 13:04:47;;;;;;;6.88;4.57;;;;;;;;;;5051284;28;20240;-69
2022/09/06 13:07:13;;;;;;;5.53;5.03;;;;;;;;;;5052867;28;20320;-69
2022/09/06 13:09:41;;;;;;;6.82;5.63;;;;;;;;;;5046172;28;20586;-69
2022/09/06 13:12:09;;;;;;;5.15;4.65;;;;;;;;;;5050661;28;20177;-69
2022/09/06 13:14:34;;;;;;;5.95;5.45;;;;;;;;;;5051613;28;20177;-69
2022/09/06 13:17:00;;;;;;;6.43;5.80;;;;;;;;;;5052785;28;20250;-69
2022/09/06 13:19:30;;;;;;;5.82;5.15;;;;;;;;;;5052516;28;20177;-69
2022/09/06 13:21:57;;;;;;;6.32;5.72;;;;;;;;;;5049908;28;20181;-69
2022/09/06 13:24:24;;;;;;;7.97;6.40;;;;;;;;;;5052798;28;20252;-69
2022/09/06 13:26:50;;;;;;;6.63;5.82;;;;;;;;;;5050503;28;20221;-69
2022/09/06 13:29:15;;;;;;;6.25;5.60;;;;;;;;;;5053005;28;20208;-69
2022/09/06 13:31:44;;;;;;;7.80;5.30;;;;;;;;;;5050945;28;20249;-70
2022/09/06 13:34:09;;;;;;;5.00;4.60;;;;;;;;;;5051887;28;20278;-69
2022/09/06 13:36:34;;;;;;;4.90;4.50;;;;;;;;;;5051852;28;20229;-70
2022/09/06 13:39:02;;;;;;;5.33;4.83;;;;;;;;;;5052451;28;20618;-69
2022/09/06 13:41:33;;;;;;;5.15;4.00;;;;;;;;;;5047207;28;20556;-69
2022/09/06 13:44:03;;;;;;;6.68;5.30;;;;;;;;;;5053033;28;20193;-69
2022/09/06 13:46:29;;;;;;;5.50;4.20;;;;;;;;;;5051748;28;20326;-69
2022/09/06 13:48:55;;;;;;;6.03;5.50;;;;;;;;;;5052529;28;20658;-69
2022/09/06 13:51:20;;;;;;;6.60;6.00;;;;;;;;;;5044521;28;20182;-69
2022/09/06 13:53:46;;;;;;;5.00;4.57;;;;;;;;;;5049064;28;20187;-69
2022/09/06 13:56:11;;;;;;;5.93;5.43;;;;;;;;;;5051779;28;20656;-69
2022/09/06 13:58:36;;;;;;;5.43;4.00;;;;;;;;;;5040539;28;20185;-69
2022/09/06 14:01:02;;;;;;;4.13;2.70;;;;;;;;;;5040560;28;20216;-68
2022/09/06 14:03:29;;;;;;;4.00;3.45;;;;;;;;;;5049133;28;20496;-68
2022/09/06 14:05:55;;;;;;;3.30;3.00;;;;;;;;;;5048101;28;20173;-68
2022/09/06 14:08:20;;;;;;;5.97;3.63;;;;;;;;;;5051528;28;20193;-68
2022/09/06 14:10:46;;;;;;;3.87;3.07;;;;;;;;;;5051159;28;20177;-68
2022/09/06 14:13:12;;;;;;;6.20;2.95;;;;;;;;;;5051122;28;20173;-68
2022/09/06 14:15:37;;;;;;;5.22;3.13;;;;;;;;;;5049081;28;20231;-69
2022/09/06 14:18:02;;;;;;;4.20;2.90;;;;;;;;;;5051230;28;20212;-69
2022/09/06 14:20:27;;;;;;;3.00;2.15;;;;;;;;;;5050826;28;20592;-69
2022/09/06 14:22:53;;;;;;;4.83;2.40;;;;;;;;;;5052013;28;20264;-69
2022/09/06 14:25:18;;;;;;;3.60;1.92;;;;;;;;;;5047917;28;20648;-69
2022/09/06 14:27:43;;;;;;;3.80;2.40;;;;;;;;;;5051785;28;20212;-69
2022/09/06 14:30:09;;;;;;;4.30;2.03;;;;;;;;;;5048139;28;20182;-69
2022/09/06 14:32:34;;;;;;;2.60;1.65;;;;;;;;;;5050288;28;20197;-69
2022/09/06 14:35:00;;;;;;;3.53;1.93;;;;;;;;;;5051639;28;20190;-70
2022/09/06 14:37:26;;;;;;;1.92;1.45;;;;;;;;;;5050284;28;20201;-70
2022/09/06 14:39:51;;;;;;;3.13;2.47;;;;;;;;;;5051386;28;20658;-70
2022/09/06 14:42:17;;;;;;;4.78;2.97;;;;;;;;;;5051258;28;20167;-69